| time (UTC) | temp C | wind direction | speed KPH | gust KPH | rain 1hr cm | rain 24hr cm | rain mn cm | humidity % | barometer mb |
| 20260906060123 | 10 | 305 | 12.9 | 27.4 | 0.00 | 0.03 | 0.00 | 79 | 1005.6 |
| 20260906054453 | 10 | 313 | 12.9 | 22.5 | 0.00 | 0.03 | 0.00 | 84 | 1005.4 |
| 20260906044124 | 9 | 324 | 14.5 | 27.4 | 0.00 | 0.03 | 0.00 | 95 | 1005.0 |
| 20260906042452 | 8 | 304 | 11.3 | 22.5 | 0.00 | 0.03 | 0.00 | 98 | 1004.7 |
| 20260906040453 | 8 | 302 | 11.3 | 20.9 | 0.00 | 0.03 | 0.00 | 98 | 1004.4 |
| 20260906034123 | 8 | 300 | 11.3 | 20.9 | 0.00 | 0.03 | 0.00 | 99 | 1004.0 |
| 20260906032454 | 8 | 300 | 12.9 | 24.1 | 0.00 | 0.03 | 0.00 | 99 | 1003.9 |
| 20260906030454 | 8 | 297 | 12.9 | 24.1 | 0.00 | 0.03 | 0.00 | 100 | 1003.7 |
| 20260906024124 | 8 | 298 | 11.3 | 22.5 | 0.00 | 0.03 | 0.00 | 100 | 1003.4 |
| 20260906022454 | 8 | 299 | 11.3 | 24.1 | 0.00 | 0.03 | 0.00 | 100 | 1003.3 |
| 20260906020453 | 7 | 294 | 11.3 | 20.9 | 0.00 | 0.03 | 0.00 | 100 | 1003.1 |
| 20260906014455 | 8 | 295 | 11.3 | 20.9 | 0.00 | 0.03 | 0.00 | 100 | 1002.7 |
| 20260906012454 | 8 | 297 | 11.3 | 24.1 | 0.00 | 0.03 | 0.00 | 100 | 1002.7 |
| 20260906010454 | 8 | 299 | 11.3 | 20.9 | 0.00 | 0.03 | 0.00 | 100 | 1002.5 |
| 20260906004455 | 8 | 303 | 11.3 | 19.3 | 0.00 | 0.03 | 0.00 | 100 | 1002.3 |
| 20260906002454 | 8 | 299 | 11.3 | 24.1 | 0.00 | 0.03 | 0.00 | 100 | 1002.1 |
| 20260905234453 | 8 | 298 | 12.9 | 20.9 | 0.00 | 0.03 | 0.00 | 100 | 1001.6 |
| 20260905232452 | 8 | 294 | 9.7 | 17.7 | 0.00 | 0.03 | 0.00 | 100 | 1001.5 |
| 20260905230453 | 8 | 296 | 9.7 | 16.1 | 0.00 | 0.03 | 0.00 | 100 | 1001.3 |
| 20260905224123 | 9 | 305 | 8.0 | 14.5 | 0.00 | 0.03 | 0.00 | 100 | 1001.1 |
| 20260905222452 | 9 | 307 | 9.7 | 17.7 | 0.00 | 0.03 | 0.00 | 100 | 1001.0 |
| 20260905220452 | 9 | 300 | 9.7 | 16.1 | 0.00 | 0.03 | 0.00 | 100 | 1000.8 |
| 20260905214453 | 10 | 315 | 11.3 | 20.9 | 0.00 | 0.03 | 0.00 | 99 | 1000.6 |
| 20260905212453 | 10 | 311 | 9.7 | 17.7 | 0.00 | 0.03 | 0.00 | 99 | 1000.5 |
| 20260905210453 | 10 | 308 | 9.7 | 16.1 | 0.00 | 0.03 | 0.00 | 99 | 1000.3 |
| 20260905204452 | 10 | 310 | 9.7 | 16.1 | 0.00 | 0.03 | 0.03 | 98 | 1000.0 |
| 20260905202452 | 10 | 309 | 9.7 | 14.5 | 0.00 | 0.03 | 0.03 | 97 | 999.8 |
| 20260905194452 | 11 | 308 | 9.7 | 17.7 | 0.00 | 0.03 | 0.03 | 93 | 999.4 |
| 20260905192122 | 12 | 304 | 9.7 | 17.7 | 0.00 | 0.03 | 0.03 | 91 | 999.3 |
| 20260905190122 | 12 | 299 | 11.3 | 20.9 | 0.00 | 0.03 | 0.03 | 88 | 999.2 |
| 20260905182451 | 13 | 306 | 8.0 | 16.1 | 0.00 | 0.03 | 0.03 | 83 | 998.8 |
| 20260905180121 | 13 | 299 | 9.7 | 16.1 | 0.00 | 0.03 | 0.03 | 84 | 998.7 |
| 20260905174449 | 13 | 294 | 6.4 | 12.9 | 0.00 | 0.03 | 0.03 | 82 | 998.5 |
| 20260905172121 | 13 | 287 | 6.4 | 11.3 | 0.00 | 0.03 | 0.03 | 79 | 998.1 |
| 20260905164452 | 13 | 285 | 6.4 | 9.7 | 0.00 | 0.03 | 0.03 | 79 | 997.9 |
| 20260905162123 | 13 | 303 | 8.0 | 14.5 | 0.00 | 0.03 | 0.03 | 75 | 997.7 |
| 20260905160452 | 13 | 299 | 8.0 | 16.1 | 0.00 | 0.03 | 0.03 | 73 | 997.4 |
| 20260905154122 | 14 | 292 | 6.4 | 14.5 | 0.00 | 0.03 | 0.03 | 72 | 997.3 |
| 20260905152122 | 16 | 307 | 12.9 | 22.5 | 0.00 | 0.03 | 0.03 | 61 | 997.1 |
| 20260905144451 | 16 | 323 | 6.4 | 14.5 | 0.00 | 0.03 | 0.03 | 63 | 996.8 |
| 20260905142452 | 16 | 335 | 11.3 | 20.9 | 0.00 | 0.03 | 0.03 | 61 | 996.7 |
| 20260905140452 | 15 | 336 | 6.4 | 11.3 | 0.00 | 0.03 | 0.03 | 72 | 996.6 |
| 20260905134451 | 15 | 325 | 8.0 | 16.1 | 0.00 | 0.00 | 0.00 | 71 | 996.4 |
| 20260905132121 | 17 | 9 | 8.0 | 17.7 | 0.00 | 0.00 | 0.00 | 53 | 996.1 |
| 20260905130454 | 16 | 336 | 6.4 | 12.9 | 0.00 | 0.00 | 0.00 | 59 | 996.1 |
| 20260905124451 | 16 | 348 | 11.3 | 20.9 | 0.00 | 0.00 | 0.00 | 58 | 996.0 |
| 20260905122450 | 17 | 273 | 11.3 | 20.9 | 0.00 | 0.00 | 0.00 | 59 | 995.8 |
| 20260905120451 | 17 | 209 | 8.0 | 17.7 | 0.00 | 0.00 | 0.00 | 65 | 995.6 |
| 20260905114450 | 15 | 231 | 4.8 | 12.9 | 0.00 | 0.00 | 0.00 | 72 | 995.7 |
| 20260905112453 | 13 | 235 | 4.8 | 6.4 | 0.00 | 0.00 | 0.00 | 80 | 995.8 |
| 20260905110450 | 14 | 261 | 9.7 | 19.3 | 0.00 | 0.00 | 0.00 | 75 | 995.7 |
| 20260905104451 | 17 | 284 | 9.7 | 20.9 | 0.00 | 0.00 | 0.00 | 57 | 995.3 |
| 20260905102451 | 16 | 248 | 8.0 | 16.1 | 0.00 | 0.00 | 0.00 | 64 | 995.1 |
| 20260905100450 | 15 | 219 | 6.4 | 11.3 | 0.00 | 0.00 | 0.00 | 67 | 995.0 |
| 20260905094449 | 16 | 221 | 8.0 | 16.1 | 0.00 | 0.00 | 0.00 | 71 | 994.9 |
| 20260905092450 | 15 | 221 | 6.4 | 12.9 | 0.00 | 0.00 | 0.00 | 73 | 994.9 |
| 20260905090451 | 14 | 266 | 4.8 | 9.7 | 0.00 | 0.00 | 0.00 | 80 | 994.9 |
| 20260905084451 | 13 | 278 | 4.8 | 11.3 | 0.00 | 0.00 | 0.00 | 84 | 994.9 |
| 20260905082453 | 12 | 295 | 6.4 | 9.7 | 0.00 | 0.00 | 0.00 | 90 | 994.8 |
| 20260905074449 | 12 | 295 | 6.4 | 12.9 | 0.00 | 0.00 | 0.00 | 94 | 994.8 |
| 20260905072449 | 11 | 298 | 4.8 | 8.0 | 0.00 | 0.00 | 0.00 | 100 | 994.6 |
| 20260905064119 | 11 | 296 | 4.8 | 8.0 | 0.00 | 0.00 | 0.00 | 100 | 994.4 |